createdAt,value
2017-11-15T00:00:34.540Z,0
2017-11-15T00:01:15.128Z,0
2017-11-15T00:01:55.679Z,0
2017-11-15T00:02:36.279Z,0
2017-11-15T00:03:16.892Z,0
2017-11-15T00:03:57.535Z,0
2017-11-15T00:04:38.146Z,0
2017-11-15T00:05:18.761Z,0
2017-11-15T00:05:59.354Z,0
2017-11-15T00:06:39.927Z,0
2017-11-15T00:07:20.538Z,0
2017-11-15T00:08:01.218Z,0
2017-11-15T00:08:41.847Z,0
2017-11-15T00:09:22.475Z,0
2017-11-15T00:10:03.070Z,0
2017-11-15T00:10:43.650Z,0
2017-11-15T00:11:24.230Z,0
2017-11-15T00:12:04.848Z,0
2017-11-15T00:12:45.412Z,0
2017-11-15T00:13:26.030Z,0
2017-11-15T00:14:06.614Z,0
2017-11-15T00:14:47.182Z,0
2017-11-15T00:15:27.779Z,0
2017-11-15T00:16:08.368Z,0
2017-11-15T00:16:48.960Z,0
2017-11-15T00:17:29.572Z,0
2017-11-15T00:18:10.140Z,0
2017-11-15T00:18:50.780Z,0
2017-11-15T00:19:31.352Z,0
2017-11-15T00:20:11.961Z,0
2017-11-15T00:20:52.549Z,0
2017-11-15T00:21:33.123Z,0
2017-11-15T00:22:13.708Z,0
2017-11-15T00:22:54.279Z,0
2017-11-15T00:23:34.861Z,0
2017-11-15T00:24:15.511Z,0
2017-11-15T00:24:56.083Z,0
2017-11-15T00:25:36.686Z,0
2017-11-15T00:26:17.280Z,0
2017-11-15T00:26:57.864Z,0
2017-11-15T00:27:38.477Z,0
2017-11-15T00:28:19.083Z,0
2017-11-15T00:28:59.663Z,0
2017-11-15T00:29:40.270Z,0
2017-11-15T00:30:20.872Z,0
2017-11-15T00:31:01.468Z,0
2017-11-15T00:31:42.096Z,0
2017-11-15T00:32:22.758Z,0
2017-11-15T00:33:03.405Z,0
2017-11-15T00:33:44.037Z,0
2017-11-15T00:34:24.612Z,0
2017-11-15T00:35:05.194Z,0
2017-11-15T00:35:45.768Z,0
2017-11-15T00:36:26.338Z,0
2017-11-15T00:37:06.917Z,0
2017-11-15T00:37:47.504Z,0
2017-11-15T00:38:28.163Z,0
2017-11-15T00:39:08.750Z,0
2017-11-15T00:39:49.414Z,0
2017-11-15T00:40:30.018Z,0
2017-11-15T00:41:10.618Z,0
2017-11-15T00:41:51.226Z,0
2017-11-15T00:42:31.853Z,0
2017-11-15T00:43:12.445Z,0
2017-11-15T00:43:53.032Z,0
2017-11-15T00:44:33.644Z,0
2017-11-15T00:45:14.214Z,0
2017-11-15T00:45:54.796Z,0
2017-11-15T00:46:35.382Z,0
2017-11-15T00:47:15.958Z,0
2017-11-15T00:47:56.576Z,0
2017-11-15T00:48:37.162Z,0
2017-11-15T00:49:17.763Z,0
2017-11-15T00:49:58.360Z,0
2017-11-15T00:50:38.937Z,0
2017-11-15T00:51:19.559Z,0
2017-11-15T00:52:00.170Z,0
2017-11-15T00:52:40.803Z,0
2017-11-15T00:53:21.410Z,0
2017-11-15T00:54:02.012Z,0
2017-11-15T00:54:42.600Z,0
2017-11-15T00:55:23.195Z,0
2017-11-15T00:56:03.783Z,0
2017-11-15T00:56:44.390Z,0
2017-11-15T00:57:24.987Z,0
2017-11-15T00:58:05.572Z,0
2017-11-15T00:58:46.151Z,0
2017-11-15T00:59:26.743Z,0
2017-11-15T01:00:07.353Z,0
2017-11-15T01:00:47.920Z,0
2017-11-15T01:01:28.532Z,0
2017-11-15T01:02:09.120Z,0
2017-11-15T01:02:49.732Z,0
2017-11-15T01:03:30.305Z,0
2017-11-15T01:04:10.898Z,0
2017-11-15T01:04:51.525Z,0
2017-11-15T01:05:32.109Z,0
2017-11-15T01:06:12.717Z,0
2017-11-15T01:06:53.280Z,0
2017-11-15T01:07:33.880Z,0
2017-11-15T01:08:14.494Z,0
2017-11-15T01:08:55.056Z,0
2017-11-15T01:09:35.622Z,0
2017-11-15T01:10:16.211Z,0
2017-11-15T01:10:56.797Z,0
2017-11-15T01:11:37.384Z,0
2017-11-15T01:12:17.955Z,0
2017-11-15T01:12:58.548Z,0
2017-11-15T01:13:39.100Z,0
2017-11-15T01:14:19.690Z,0
2017-11-15T01:15:00.275Z,0
2017-11-15T01:15:40.846Z,0
2017-11-15T01:16:21.417Z,0
2017-11-15T01:17:02.074Z,0
2017-11-15T01:17:42.709Z,0
2017-11-15T01:18:23.340Z,0
2017-11-15T01:19:03.931Z,0
2017-11-15T01:19:44.497Z,0
2017-11-15T01:20:25.071Z,0
2017-11-15T01:21:05.632Z,0
2017-11-15T01:21:46.199Z,0
2017-11-15T01:22:26.761Z,0
2017-11-15T01:23:07.321Z,0
2017-11-15T01:23:47.895Z,0
2017-11-15T01:24:28.474Z,0
2017-11-15T01:25:09.041Z,0
2017-11-15T01:25:49.639Z,0
2017-11-15T01:26:30.249Z,0
2017-11-15T01:27:10.835Z,0
2017-11-15T01:27:51.412Z,0
2017-11-15T01:28:32.009Z,0
2017-11-15T01:29:12.617Z,0
2017-11-15T01:29:53.213Z,0
2017-11-15T01:30:33.808Z,0
2017-11-15T01:31:14.427Z,0
2017-11-15T01:31:55.007Z,0
2017-11-15T01:32:35.596Z,0
2017-11-15T01:33:16.165Z,0
2017-11-15T01:33:56.731Z,0
2017-11-15T01:34:37.302Z,0
2017-11-15T01:35:17.874Z,0
2017-11-15T01:35:58.445Z,0
2017-11-15T01:36:39.027Z,0
2017-11-15T01:37:19.620Z,0
2017-11-15T01:38:00.202Z,0
2017-11-15T01:38:40.798Z,0
2017-11-15T01:39:21.367Z,0
2017-11-15T01:40:01.945Z,0
2017-11-15T01:40:42.527Z,0
2017-11-15T01:41:23.118Z,0
2017-11-15T01:42:03.719Z,0
2017-11-15T01:42:44.304Z,0
2017-11-15T01:43:24.910Z,0
2017-11-15T01:44:05.506Z,0
2017-11-15T01:44:46.087Z,0
2017-11-15T01:45:26.654Z,0
2017-11-15T01:46:07.230Z,0
2017-11-15T01:46:47.807Z,0
2017-11-15T01:47:28.390Z,0
2017-11-15T01:48:09.008Z,0
2017-11-15T01:48:49.590Z,0
2017-11-15T01:49:30.248Z,0
2017-11-15T01:50:10.821Z,0
2017-11-15T01:50:51.395Z,0
2017-11-15T01:51:31.985Z,0
2017-11-15T01:52:12.575Z,0
2017-11-15T01:52:53.165Z,0
2017-11-15T01:53:33.757Z,0
2017-11-15T01:54:14.376Z,0
2017-11-15T01:54:54.970Z,0
2017-11-15T01:55:35.611Z,0
2017-11-15T01:56:16.212Z,0
2017-11-15T01:56:56.777Z,0
2017-11-15T01:57:37.366Z,0
2017-11-15T01:58:17.953Z,0
2017-11-15T01:58:58.566Z,0
2017-11-15T01:59:39.151Z,0
2017-11-15T02:00:19.751Z,0
2017-11-15T02:01:00.349Z,0
2017-11-15T02:01:40.929Z,0
2017-11-15T02:02:21.517Z,0
2017-11-15T02:03:02.100Z,0
2017-11-15T02:03:42.681Z,0
2017-11-15T02:04:23.248Z,0
2017-11-15T02:05:03.830Z,0
2017-11-15T02:05:44.417Z,0
2017-11-15T02:06:25.019Z,0
2017-11-15T02:07:05.591Z,0
2017-11-15T02:07:46.176Z,0
2017-11-15T02:08:26.728Z,0
2017-11-15T02:09:07.288Z,0
2017-11-15T02:09:47.877Z,0
2017-11-15T02:10:28.480Z,0
2017-11-15T02:11:09.078Z,0
2017-11-15T02:11:49.664Z,0
2017-11-15T02:12:30.250Z,0
2017-11-15T02:13:10.838Z,0
2017-11-15T02:13:51.431Z,0
2017-11-15T02:14:31.997Z,0
2017-11-15T02:15:12.572Z,0
2017-11-15T02:15:53.149Z,0
2017-11-15T02:16:33.757Z,0
2017-11-15T02:17:14.349Z,0
2017-11-15T02:17:54.935Z,0
2017-11-15T02:18:35.516Z,0
2017-11-15T02:19:16.104Z,0
2017-11-15T02:19:56.687Z,0
2017-11-15T02:20:37.284Z,0
2017-11-15T02:21:17.858Z,0
2017-11-15T02:21:58.444Z,0
2017-11-15T02:22:39.027Z,0
2017-11-15T02:23:19.616Z,0
2017-11-15T02:24:00.219Z,0
2017-11-15T02:24:40.786Z,0
2017-11-15T02:25:21.376Z,0
2017-11-15T02:26:01.939Z,0
2017-11-15T02:26:42.496Z,0
2017-11-15T02:27:23.062Z,0
2017-11-15T02:28:03.627Z,0
2017-11-15T02:28:44.218Z,0
2017-11-15T02:29:24.811Z,0
2017-11-15T02:30:05.399Z,0
2017-11-15T02:30:46.039Z,0
2017-11-15T02:31:26.631Z,0
2017-11-15T02:32:07.219Z,0
2017-11-15T02:32:47.822Z,0
2017-11-15T02:33:28.415Z,0
2017-11-15T02:34:08.993Z,0
2017-11-15T02:34:49.588Z,0
2017-11-15T02:35:30.185Z,0
2017-11-15T02:36:10.780Z,0
2017-11-15T02:36:51.372Z,0
2017-11-15T02:37:31.945Z,0
2017-11-15T02:38:12.524Z,0
2017-11-15T02:38:53.094Z,0
2017-11-15T02:39:33.670Z,0
2017-11-15T02:40:14.256Z,0
2017-11-15T02:40:54.946Z,0
2017-11-15T02:41:35.540Z,0
2017-11-15T02:42:16.121Z,0
2017-11-15T02:42:56.690Z,0
2017-11-15T02:43:37.268Z,0
2017-11-15T02:44:17.840Z,0
2017-11-15T02:44:58.437Z,0
2017-11-15T02:45:39.052Z,0
2017-11-15T02:46:19.641Z,0
2017-11-15T02:47:00.304Z,0
2017-11-15T02:47:40.891Z,0
2017-11-15T02:48:21.448Z,0
2017-11-15T02:49:02.029Z,0
2017-11-15T02:49:42.602Z,0
2017-11-15T02:50:23.194Z,0
2017-11-15T02:51:03.763Z,0
2017-11-15T02:51:44.344Z,0
2017-11-15T02:52:24.917Z,0
2017-11-15T02:53:05.508Z,0
2017-11-15T02:53:46.081Z,0
2017-11-15T02:54:26.661Z,0
2017-11-15T02:55:07.262Z,0
2017-11-15T02:55:47.839Z,0
2017-11-15T02:56:28.409Z,0
2017-11-15T02:57:08.995Z,0
2017-11-15T02:57:49.591Z,0
2017-11-15T02:58:30.165Z,0
2017-11-15T02:59:10.715Z,0
2017-11-15T02:59:51.285Z,0
2017-11-15T03:00:31.849Z,0
2017-11-15T03:01:12.425Z,0
2017-11-15T03:01:53.033Z,0
2017-11-15T03:02:33.587Z,0
2017-11-15T03:03:14.175Z,0
2017-11-15T03:03:54.754Z,0
2017-11-15T03:04:35.376Z,0
2017-11-15T03:05:15.934Z,0
2017-11-15T03:05:56.547Z,0
2017-11-15T03:06:37.115Z,0
2017-11-15T03:07:17.682Z,0
2017-11-15T03:07:58.247Z,0
2017-11-15T03:08:38.836Z,0
2017-11-15T03:09:19.416Z,0
2017-11-15T03:10:00.002Z,0
2017-11-15T03:10:40.592Z,0
2017-11-15T03:11:21.168Z,0
2017-11-15T03:12:01.742Z,0
2017-11-15T03:12:42.327Z,0
2017-11-15T03:13:22.888Z,0
2017-11-15T03:14:03.448Z,0
2017-11-15T03:14:44.014Z,0
2017-11-15T03:15:24.674Z,0
2017-11-15T03:16:05.269Z,0
2017-11-15T03:16:45.868Z,0
2017-11-15T03:17:26.453Z,0
2017-11-15T03:18:07.024Z,0
2017-11-15T03:18:47.594Z,0
2017-11-15T03:19:28.168Z,0
2017-11-15T03:20:08.766Z,0
2017-11-15T03:20:49.391Z,0
2017-11-15T03:21:29.961Z,0
2017-11-15T03:22:10.559Z,0
2017-11-15T03:22:51.138Z,0
2017-11-15T03:23:31.705Z,0
2017-11-15T03:24:12.273Z,0
2017-11-15T03:24:52.837Z,0
2017-11-15T03:25:33.407Z,0
2017-11-15T03:26:13.964Z,0
2017-11-15T03:26:54.525Z,0
2017-11-15T03:27:35.131Z,0
2017-11-15T03:28:15.706Z,0
2017-11-15T03:28:56.269Z,0
2017-11-15T03:29:36.884Z,0
2017-11-15T03:30:17.464Z,0
2017-11-15T03:30:58.024Z,0
2017-11-15T03:31:38.616Z,0
2017-11-15T03:32:19.257Z,0
2017-11-15T03:32:59.827Z,0
2017-11-15T03:33:40.401Z,0
2017-11-15T03:34:21.003Z,0
2017-11-15T03:35:01.607Z,0
2017-11-15T03:35:42.178Z,0
2017-11-15T03:36:22.776Z,0
2017-11-15T03:37:03.380Z,0
2017-11-15T03:37:43.957Z,0
2017-11-15T03:38:24.556Z,0
2017-11-15T03:39:05.152Z,0
2017-11-15T03:39:45.755Z,0
2017-11-15T03:40:26.360Z,0
2017-11-15T03:41:06.953Z,0
2017-11-15T03:41:47.537Z,0
2017-11-15T03:42:28.111Z,0
2017-11-15T03:43:08.706Z,0
2017-11-15T03:43:49.292Z,0
2017-11-15T03:44:29.868Z,0
2017-11-15T03:45:10.461Z,0
2017-11-15T03:45:51.052Z,0
2017-11-15T03:46:31.638Z,0
2017-11-15T03:47:12.215Z,0
2017-11-15T03:47:52.837Z,0
2017-11-15T03:48:33.417Z,0
2017-11-15T03:49:13.985Z,0
2017-11-15T03:49:54.549Z,0
2017-11-15T03:50:35.233Z,0
2017-11-15T03:51:15.831Z,0
2017-11-15T03:51:56.443Z,0
2017-11-15T03:52:37.031Z,0
2017-11-15T03:53:17.610Z,0
2017-11-15T03:53:58.191Z,0
2017-11-15T03:54:38.795Z,0
2017-11-15T03:55:19.350Z,0
2017-11-15T03:55:59.930Z,0
2017-11-15T03:56:40.510Z,0
2017-11-15T03:57:21.124Z,0
2017-11-15T03:58:01.680Z,0
2017-11-15T03:58:42.275Z,0
2017-11-15T03:59:22.834Z,0
2017-11-15T04:00:03.415Z,0
2017-11-15T04:00:43.997Z,0
2017-11-15T04:01:24.600Z,0
2017-11-15T04:02:05.217Z,0
2017-11-15T04:02:45.795Z,0
2017-11-15T04:03:26.415Z,0
2017-11-15T04:04:06.993Z,0
2017-11-15T04:04:47.567Z,0
2017-11-15T04:05:28.139Z,0
2017-11-15T04:06:08.755Z,0
2017-11-15T04:06:49.337Z,0
2017-11-15T04:07:29.961Z,0
2017-11-15T04:08:10.547Z,0
2017-11-15T04:08:51.154Z,0
2017-11-15T04:09:31.731Z,0
2017-11-15T04:10:12.311Z,0
2017-11-15T04:10:52.883Z,0
2017-11-15T04:11:33.455Z,0
2017-11-15T04:12:14.036Z,0
2017-11-15T04:12:54.633Z,0
2017-11-15T04:13:35.258Z,0
2017-11-15T04:14:15.859Z,0
2017-11-15T04:14:56.482Z,0
2017-11-15T04:15:37.077Z,0
2017-11-15T04:16:17.683Z,0
2017-11-15T04:16:58.269Z,0
2017-11-15T04:17:38.850Z,0
2017-11-15T04:18:19.487Z,0
2017-11-15T04:19:00.108Z,0
2017-11-15T04:19:40.722Z,0
2017-11-15T04:20:21.303Z,0
2017-11-15T04:21:01.894Z,0
2017-11-15T04:21:42.481Z,0
2017-11-15T04:22:23.044Z,0
2017-11-15T04:23:03.601Z,0
2017-11-15T04:23:44.167Z,0
2017-11-15T04:24:24.745Z,0
2017-11-15T04:25:05.341Z,0
2017-11-15T04:25:45.945Z,0
2017-11-15T04:26:26.584Z,0
2017-11-15T04:27:07.169Z,0
2017-11-15T04:27:47.733Z,0
2017-11-15T04:28:28.297Z,0
2017-11-15T04:29:08.891Z,0
2017-11-15T04:29:49.477Z,0
2017-11-15T04:30:30.101Z,0
2017-11-15T04:31:10.665Z,0
2017-11-15T04:31:51.261Z,0
2017-11-15T04:32:31.847Z,0
2017-11-15T04:33:12.424Z,0
2017-11-15T04:33:53.015Z,0
2017-11-15T04:34:33.599Z,0
2017-11-15T04:35:14.182Z,0
2017-11-15T04:35:54.780Z,0
2017-11-15T04:36:35.441Z,0
2017-11-15T04:37:16.019Z,0
2017-11-15T04:37:56.649Z,0
2017-11-15T04:38:37.242Z,0
2017-11-15T04:39:17.846Z,0
2017-11-15T04:39:58.452Z,0
2017-11-15T04:40:39.080Z,0
2017-11-15T04:41:19.653Z,0
2017-11-15T04:42:00.241Z,0
2017-11-15T04:42:40.845Z,0
2017-11-15T04:43:21.444Z,0
2017-11-15T04:44:02.008Z,0
2017-11-15T04:44:42.586Z,0
2017-11-15T04:45:23.152Z,0
2017-11-15T04:46:03.755Z,0
2017-11-15T04:46:44.330Z,0
2017-11-15T04:47:24.900Z,0
2017-11-15T04:48:05.484Z,0
2017-11-15T04:48:46.064Z,0
2017-11-15T04:49:26.637Z,0
2017-11-15T04:50:07.223Z,0
2017-11-15T04:50:47.817Z,0
2017-11-15T04:51:28.383Z,0
2017-11-15T04:52:08.957Z,0
2017-11-15T04:52:49.545Z,0
2017-11-15T04:53:30.120Z,0
2017-11-15T04:54:10.706Z,0
2017-11-15T04:54:51.282Z,0
2017-11-15T04:55:31.876Z,0
2017-11-15T04:56:12.457Z,0
2017-11-15T04:56:53.021Z,0
2017-11-15T04:57:33.608Z,0
2017-11-15T04:58:14.181Z,0
2017-11-15T04:58:54.759Z,0
2017-11-15T04:59:35.339Z,0
2017-11-15T05:00:15.912Z,0
2017-11-15T05:00:56.483Z,0
2017-11-15T05:01:37.090Z,0
2017-11-15T05:02:17.676Z,0
2017-11-15T05:02:58.294Z,0
2017-11-15T05:03:38.888Z,0
2017-11-15T05:04:19.468Z,0
2017-11-15T05:05:00.030Z,0
2017-11-15T05:05:40.608Z,0
2017-11-15T05:06:21.164Z,0
2017-11-15T05:07:01.749Z,0
2017-11-15T05:07:42.326Z,0
2017-11-15T05:08:22.890Z,0
2017-11-15T05:09:03.458Z,0
2017-11-15T05:09:44.037Z,0
2017-11-15T05:10:24.593Z,0
2017-11-15T05:11:05.159Z,0
2017-11-15T05:11:45.734Z,0
2017-11-15T05:12:26.298Z,0
2017-11-15T05:13:06.852Z,0
2017-11-15T05:13:47.431Z,0
2017-11-15T05:14:27.999Z,0
2017-11-15T05:15:08.577Z,0
2017-11-15T05:15:49.133Z,0
2017-11-15T05:16:29.717Z,0
2017-11-15T05:17:10.277Z,0
2017-11-15T05:17:50.862Z,0
2017-11-15T05:18:31.447Z,0
2017-11-15T05:19:12.021Z,0
2017-11-15T05:19:52.582Z,0
2017-11-15T05:20:33.177Z,0
2017-11-15T05:21:13.725Z,0
2017-11-15T05:21:54.300Z,0
2017-11-15T05:22:34.901Z,0
2017-11-15T05:23:15.486Z,0
2017-11-15T05:23:56.071Z,0
2017-11-15T05:24:36.643Z,0
2017-11-15T05:25:17.197Z,0
2017-11-15T05:25:57.764Z,0
2017-11-15T05:26:38.349Z,0
2017-11-15T05:27:19.033Z,0
2017-11-15T05:27:59.867Z,0
2017-11-15T05:28:40.516Z,0
2017-11-15T05:29:21.129Z,0
2017-11-15T05:30:01.711Z,0
2017-11-15T05:30:42.273Z,0
2017-11-15T05:31:22.854Z,0
2017-11-15T05:32:03.426Z,0
2017-11-15T05:32:44.006Z,0
2017-11-15T05:33:24.576Z,0
2017-11-15T05:34:05.151Z,0
2017-11-15T05:34:45.709Z,0
2017-11-15T05:35:26.281Z,0
2017-11-15T05:36:06.883Z,0
2017-11-15T05:36:47.465Z,0
2017-11-15T05:37:28.035Z,0
2017-11-15T05:38:08.613Z,0
2017-11-15T05:38:49.175Z,0
2017-11-15T05:39:29.760Z,0
2017-11-15T05:40:10.332Z,0
2017-11-15T05:40:50.925Z,0
2017-11-15T05:41:31.516Z,0
2017-11-15T05:42:12.092Z,0
2017-11-15T05:42:52.701Z,0
2017-11-15T05:43:33.333Z,0
2017-11-15T05:44:13.894Z,0
2017-11-15T05:44:54.474Z,0
2017-11-15T05:45:35.033Z,0
2017-11-15T05:46:15.636Z,0
2017-11-15T05:46:56.221Z,0
2017-11-15T05:47:36.772Z,0
2017-11-15T05:48:17.362Z,0
2017-11-15T05:48:57.954Z,0
2017-11-15T05:49:38.517Z,0
2017-11-15T05:50:19.133Z,0
2017-11-15T05:50:59.677Z,0
2017-11-15T05:51:40.229Z,0
2017-11-15T05:52:20.815Z,0
2017-11-15T05:53:01.404Z,0
2017-11-15T05:53:42.008Z,0
2017-11-15T05:54:22.580Z,0
2017-11-15T05:55:03.141Z,0
2017-11-15T05:55:43.705Z,0
2017-11-15T05:56:24.276Z,0
2017-11-15T05:57:04.868Z,0
2017-11-15T05:57:45.471Z,0
2017-11-15T05:58:26.059Z,0
2017-11-15T05:59:06.635Z,0
2017-11-15T05:59:47.213Z,0
2017-11-15T06:00:27.770Z,0
2017-11-15T06:01:08.336Z,0
2017-11-15T06:01:48.927Z,0
2017-11-15T06:02:29.518Z,0
2017-11-15T06:03:10.087Z,0
2017-11-15T06:03:50.686Z,0
2017-11-15T06:04:31.248Z,4
2017-11-15T06:05:11.843Z,4
2017-11-15T06:05:52.438Z,0
2017-11-15T06:06:33.022Z,0
2017-11-15T06:07:13.602Z,0
2017-11-15T06:07:54.175Z,0
2017-11-15T06:08:35.385Z,4
2017-11-15T06:09:15.961Z,4
2017-11-15T06:09:56.552Z,4
2017-11-15T06:10:37.160Z,4
2017-11-15T06:11:17.756Z,4
2017-11-15T06:11:58.317Z,4
2017-11-15T06:12:38.938Z,4
2017-11-15T06:13:19.484Z,0
2017-11-15T06:14:00.078Z,4
2017-11-15T06:14:40.579Z,4
2017-11-15T06:15:21.148Z,4
2017-11-15T06:16:01.776Z,4
2017-11-15T06:16:42.357Z,4
2017-11-15T06:17:22.923Z,4
2017-11-15T06:18:03.530Z,4
2017-11-15T06:18:44.034Z,8
2017-11-15T06:19:24.696Z,8
2017-11-15T06:20:05.288Z,8
2017-11-15T06:20:45.775Z,8
2017-11-15T06:21:26.354Z,8
2017-11-15T06:22:07.007Z,4
2017-11-15T06:22:47.611Z,8
2017-11-15T06:23:28.254Z,8
2017-11-15T06:24:08.716Z,8
2017-11-15T06:24:49.264Z,12
2017-11-15T06:25:29.917Z,8
2017-11-15T06:26:10.432Z,8
2017-11-15T06:26:51.099Z,12
2017-11-15T06:27:31.682Z,16
2017-11-15T06:28:12.354Z,16
2017-11-15T06:28:52.874Z,12
2017-11-15T06:29:33.468Z,16
2017-11-15T06:30:14.031Z,16
2017-11-15T06:30:54.579Z,16
2017-11-15T06:31:35.132Z,20
2017-11-15T06:32:15.747Z,20
2017-11-15T06:32:56.472Z,20
2017-11-15T06:33:37.071Z,20
2017-11-15T06:34:17.859Z,24
2017-11-15T06:34:58.143Z,24
2017-11-15T06:35:38.730Z,32
2017-11-15T06:36:19.410Z,32
2017-11-15T06:36:59.929Z,36
2017-11-15T06:37:40.496Z,36
2017-11-15T06:38:21.061Z,36
2017-11-15T06:39:01.621Z,36
2017-11-15T06:39:42.184Z,40
2017-11-15T06:40:22.776Z,40
2017-11-15T06:41:03.340Z,44
2017-11-15T06:41:44.130Z,44
2017-11-15T06:42:24.700Z,44
2017-11-15T06:43:05.272Z,48
2017-11-15T06:43:46.091Z,56
2017-11-15T06:44:27.016Z,60
2017-11-15T06:45:07.587Z,64
2017-11-15T06:45:48.167Z,64
2017-11-15T06:46:28.739Z,56
2017-11-15T06:47:09.297Z,60
2017-11-15T06:47:49.855Z,60
2017-11-15T06:48:30.408Z,64
2017-11-15T06:49:10.972Z,64
2017-11-15T06:49:51.543Z,68
2017-11-15T06:50:32.112Z,76
2017-11-15T06:51:12.708Z,76
2017-11-15T06:51:53.505Z,84
2017-11-15T06:52:34.071Z,84
2017-11-15T06:53:14.664Z,84
2017-11-15T06:53:55.294Z,84
2017-11-15T06:54:35.900Z,88
2017-11-15T06:55:16.520Z,88
2017-11-15T06:55:57.123Z,92
2017-11-15T06:56:37.688Z,92
2017-11-15T06:57:18.292Z,92
2017-11-15T06:57:58.848Z,92
2017-11-15T06:58:39.409Z,100
2017-11-15T06:59:19.977Z,108
2017-11-15T07:00:00.557Z,108
2017-11-15T07:00:41.127Z,112
2017-11-15T07:01:21.695Z,116
2017-11-15T07:02:02.279Z,132
2017-11-15T07:02:42.999Z,140
2017-11-15T07:03:24.183Z,144
2017-11-15T07:04:04.839Z,140
2017-11-15T07:04:45.413Z,148
2017-11-15T07:05:26.005Z,152
2017-11-15T07:06:06.598Z,152
2017-11-15T07:06:47.165Z,152
2017-11-15T07:07:27.774Z,148
2017-11-15T07:08:08.375Z,156
2017-11-15T07:08:48.945Z,172
2017-11-15T07:09:29.579Z,164
2017-11-15T07:10:10.575Z,148
2017-11-15T07:10:51.440Z,144
2017-11-15T07:11:32.001Z,160
2017-11-15T07:12:12.588Z,164
2017-11-15T07:12:53.161Z,168
2017-11-15T07:13:33.748Z,168
2017-11-15T07:14:14.336Z,160
2017-11-15T07:14:54.944Z,168
2017-11-15T07:15:35.526Z,180
2017-11-15T07:16:16.079Z,180
2017-11-15T07:16:56.649Z,184
2017-11-15T07:17:37.255Z,196
2017-11-15T07:18:17.859Z,196
2017-11-15T07:18:58.424Z,196
2017-11-15T07:19:39.006Z,212
2017-11-15T07:20:19.579Z,244
2017-11-15T07:21:00.169Z,228
2017-11-15T07:21:40.738Z,228
2017-11-15T07:22:21.332Z,236
2017-11-15T07:23:01.916Z,248
2017-11-15T07:23:42.504Z,228
2017-11-15T07:24:23.139Z,220
2017-11-15T07:25:03.713Z,220
2017-11-15T07:25:44.276Z,236
2017-11-15T07:26:24.868Z,256
2017-11-15T07:27:05.458Z,304
2017-11-15T07:27:46.036Z,320
2017-11-15T07:28:26.602Z,320
2017-11-15T07:29:07.168Z,308
2017-11-15T07:29:47.752Z,276
2017-11-15T07:30:28.339Z,276
2017-11-15T07:31:08.982Z,300
2017-11-15T07:31:49.579Z,336
2017-11-15T07:32:30.146Z,368
2017-11-15T07:33:10.724Z,352
2017-11-15T07:33:51.299Z,320
2017-11-15T07:34:31.864Z,324
2017-11-15T07:35:12.446Z,332
2017-11-15T07:35:53.047Z,324
2017-11-15T07:36:33.625Z,364
2017-11-15T07:37:14.208Z,356
2017-11-15T07:37:54.811Z,304
2017-11-15T07:38:35.402Z,312
2017-11-15T07:39:15.987Z,344
2017-11-15T07:39:56.602Z,372
2017-11-15T07:40:37.193Z,396
2017-11-15T07:41:17.764Z,416
2017-11-15T07:41:58.363Z,436
2017-11-15T07:42:38.947Z,484
2017-11-15T07:43:19.516Z,536
2017-11-15T07:44:00.103Z,512
2017-11-15T07:44:40.674Z,440
2017-11-15T07:45:21.254Z,432
2017-11-15T07:46:01.925Z,464
2017-11-15T07:46:42.510Z,544
2017-11-15T07:47:23.081Z,532
2017-11-15T07:48:03.686Z,492
2017-11-15T07:48:44.266Z,484
2017-11-15T07:49:24.845Z,488
2017-11-15T07:50:05.424Z,496
2017-11-15T07:50:46.007Z,548
2017-11-15T07:51:26.583Z,552
2017-11-15T07:52:07.171Z,560
2017-11-15T07:52:47.765Z,576
2017-11-15T07:53:28.362Z,548
2017-11-15T07:54:08.931Z,524
2017-11-15T07:54:49.556Z,544
2017-11-15T07:55:30.262Z,588
2017-11-15T07:56:10.840Z,640
2017-11-15T07:56:51.420Z,692
2017-11-15T07:57:32.012Z,756
2017-11-15T07:58:12.605Z,824
2017-11-15T07:58:53.176Z,896
2017-11-15T07:59:33.754Z,916
2017-11-15T08:00:14.857Z,892
2017-11-15T08:00:55.041Z,864
2017-11-15T08:01:35.778Z,808
2017-11-15T08:02:16.341Z,748
2017-11-15T08:02:57.048Z,704
2017-11-15T08:03:37.763Z,720
2017-11-15T08:04:18.369Z,724
2017-11-15T08:04:58.960Z,680
2017-11-15T08:05:39.538Z,616
2017-11-15T08:08:07.588Z,548
2017-11-15T08:08:48.197Z,552
2017-11-15T08:09:28.769Z,568
2017-11-15T08:10:09.331Z,572
2017-11-15T08:10:49.897Z,556
2017-11-15T08:11:30.484Z,540
2017-11-15T08:12:11.051Z,540
2017-11-15T08:12:51.628Z,516
2017-11-15T08:13:32.186Z,504
2017-11-15T08:14:12.760Z,516
2017-11-15T08:14:53.366Z,524
2017-11-15T08:15:33.926Z,512
2017-11-15T08:16:14.511Z,508
2017-11-15T08:16:55.084Z,524
2017-11-15T08:17:35.670Z,580
2017-11-15T08:18:16.229Z,624
2017-11-15T08:18:56.804Z,624
2017-11-15T08:19:37.365Z,568
2017-11-15T08:20:17.931Z,516
2017-11-15T08:20:58.510Z,512
2017-11-15T08:21:39.289Z,524
2017-11-15T08:22:20.151Z,532
2017-11-15T08:23:00.716Z,528
2017-11-15T08:23:41.281Z,516
2017-11-15T08:24:21.860Z,500
2017-11-15T08:25:02.460Z,496
2017-11-15T08:25:43.031Z,500
2017-11-15T08:26:23.605Z,500
2017-11-15T08:27:04.200Z,504
2017-11-15T08:27:44.775Z,516
2017-11-15T08:28:25.357Z,556
2017-11-15T08:29:05.944Z,596
2017-11-15T08:29:46.519Z,620
2017-11-15T08:30:27.090Z,640
2017-11-15T08:31:07.664Z,644
2017-11-15T08:31:48.283Z,624
2017-11-15T08:32:28.867Z,620
2017-11-15T08:33:09.469Z,604
2017-11-15T08:33:50.044Z,592
2017-11-15T08:34:30.610Z,596
2017-11-15T08:35:11.220Z,600
2017-11-15T08:35:52.450Z,624
2017-11-15T08:36:33.036Z,628
2017-11-15T08:37:13.624Z,636
2017-11-15T08:37:54.217Z,616
2017-11-15T08:38:34.810Z,644
2017-11-15T08:39:15.391Z,684
2017-11-15T08:39:55.988Z,728
2017-11-15T08:40:36.615Z,720
2017-11-15T08:41:17.184Z,732
2017-11-15T08:41:57.784Z,732
2017-11-15T08:42:38.393Z,744
2017-11-15T08:43:19.010Z,780
2017-11-15T08:43:59.633Z,800
2017-11-15T08:44:40.207Z,812
2017-11-15T08:45:20.794Z,828
2017-11-15T08:46:01.366Z,872
2017-11-15T08:46:41.949Z,924
2017-11-15T08:47:22.526Z,940
2017-11-15T08:48:03.120Z,948
2017-11-15T08:48:43.718Z,920
2017-11-15T08:49:24.346Z,908
2017-11-15T08:50:04.944Z,972
2017-11-15T08:50:45.522Z,1000
2017-11-15T08:51:26.120Z,972
2017-11-15T08:52:06.732Z,956
2017-11-15T08:52:47.297Z,952
2017-11-15T08:53:27.891Z,880
2017-11-15T08:54:08.469Z,828
2017-11-15T08:54:49.059Z,784
2017-11-15T08:55:29.646Z,764
2017-11-15T08:56:10.323Z,784
2017-11-15T08:56:51.443Z,792
2017-11-15T08:57:32.341Z,820
2017-11-15T08:58:13.035Z,864
2017-11-15T08:58:53.798Z,892
2017-11-15T08:59:34.373Z,900
2017-11-15T09:00:14.953Z,932
2017-11-15T09:00:55.541Z,952
2017-11-15T09:01:36.144Z,976
2017-11-15T09:02:16.933Z,1004
2017-11-15T09:02:57.496Z,996
2017-11-15T09:03:38.100Z,964
2017-11-15T09:04:18.683Z,984
2017-11-15T09:04:59.289Z,1004
2017-11-15T09:05:39.874Z,1016
2017-11-15T09:06:20.438Z,1000
2017-11-15T09:07:01.062Z,996
2017-11-15T09:07:41.633Z,988
2017-11-15T09:08:22.205Z,972
2017-11-15T09:09:02.817Z,940
2017-11-15T09:09:43.383Z,944
2017-11-15T09:10:23.957Z,1004
2017-11-15T09:11:04.511Z,1052
2017-11-15T09:11:45.126Z,1064
2017-11-15T09:12:25.734Z,1084
2017-11-15T09:13:06.307Z,1144
2017-11-15T09:13:46.892Z,1276
2017-11-15T09:14:27.483Z,1376
2017-11-15T09:15:08.090Z,1436
2017-11-15T09:15:48.664Z,1540
2017-11-15T09:16:29.224Z,1688
2017-11-15T09:17:09.817Z,1780
2017-11-15T09:17:50.382Z,1900
2017-11-15T09:18:30.992Z,2028
2017-11-15T09:19:11.601Z,1948
2017-11-15T09:19:52.204Z,1904
2017-11-15T09:20:32.783Z,1904
2017-11-15T09:21:13.351Z,1804
2017-11-15T09:21:53.977Z,1676
2017-11-15T09:22:34.575Z,1628
2017-11-15T09:23:15.146Z,1688
2017-11-15T09:23:55.802Z,1700
2017-11-15T09:24:36.379Z,1624
2017-11-15T09:25:16.946Z,1576
2017-11-15T09:25:57.521Z,1580
2017-11-15T09:26:38.092Z,1640
2017-11-15T09:27:18.655Z,1644
2017-11-15T09:27:59.248Z,1612
2017-11-15T09:28:39.848Z,1612
2017-11-15T09:29:20.497Z,1680
2017-11-15T09:30:01.061Z,1668
2017-11-15T09:30:41.632Z,1716
2017-11-15T09:31:22.204Z,1844
2017-11-15T09:32:02.797Z,2032
2017-11-15T09:32:43.409Z,2004
2017-11-15T09:33:23.997Z,1760
2017-11-15T09:34:04.612Z,1536
2017-11-15T09:34:45.226Z,1416
2017-11-15T09:35:25.796Z,1528
2017-11-15T09:36:06.455Z,1812
2017-11-15T09:36:47.027Z,1984
2017-11-15T09:37:27.593Z,1864
2017-11-15T09:38:08.175Z,1472
2017-11-15T09:38:48.748Z,1116
2017-11-15T09:39:29.528Z,888
2017-11-15T09:40:10.081Z,788
2017-11-15T09:40:50.661Z,748
2017-11-15T09:41:31.253Z,800
2017-11-15T09:42:11.816Z,908
2017-11-15T09:42:52.415Z,1016
2017-11-15T09:43:32.976Z,1160
2017-11-15T09:44:13.542Z,1408
2017-11-15T09:44:54.120Z,1528
2017-11-15T09:45:34.685Z,1540
2017-11-15T09:46:15.275Z,1680
2017-11-15T09:46:55.830Z,1908
2017-11-15T09:47:36.419Z,2012